createdAt,value
2023-03-29T00:01:01.567Z,2.60
2023-03-29T00:03:31.056Z,2.53
2023-03-29T00:06:04.255Z,2.60
2023-03-29T00:08:35.414Z,2.93
2023-03-29T00:11:04.552Z,2.93
2023-03-29T00:13:33.707Z,2.80
2023-03-29T00:16:02.564Z,2.50
2023-03-29T00:18:31.383Z,2.70
2023-03-29T00:21:01.568Z,2.73
2023-03-29T00:23:30.745Z,3.10
2023-03-29T00:26:01.256Z,3.17
2023-03-29T00:28:30.312Z,3.00
2023-03-29T00:31:07.332Z,3.20
2023-03-29T00:33:37.012Z,3.00
2023-03-29T00:36:07.573Z,3.30
2023-03-29T00:38:37.238Z,3.30
2023-03-29T00:41:08.510Z,3.20
2023-03-29T00:43:54.722Z,3.20
2023-03-29T00:46:23.803Z,3.20
2023-03-29T00:48:55.979Z,3.07
2023-03-29T00:51:28.247Z,3.43
2023-03-29T00:54:00.185Z,2.97
2023-03-29T00:56:35.373Z,3.03
2023-03-29T00:59:07.238Z,2.90
2023-03-29T01:01:42.292Z,2.90
2023-03-29T01:04:18.242Z,3.20
2023-03-29T01:06:55.433Z,3.20
2023-03-29T01:09:27.341Z,2.90
2023-03-29T01:12:00.205Z,2.87
2023-03-29T01:14:35.338Z,3.07
2023-03-29T01:17:05.850Z,2.93
2023-03-29T01:19:40.831Z,3.10
2023-03-29T01:22:20.443Z,2.90
2023-03-29T01:25:01.295Z,2.87
2023-03-29T01:27:54.968Z,2.70
2023-03-29T01:30:29.121Z,2.80
2023-03-29T01:33:01.655Z,3.43
2023-03-29T01:35:37.171Z,3.40
2023-03-29T01:38:11.430Z,3.60
2023-03-29T01:40:40.630Z,3.30
2023-03-29T01:43:23.137Z,3.00
2023-03-29T01:45:57.077Z,3.20
2023-03-29T01:48:31.428Z,3.37
2023-03-29T01:51:07.016Z,2.90
2023-03-29T01:53:41.086Z,2.93
2023-03-29T01:56:15.503Z,3.00
2023-03-29T01:58:47.844Z,2.60
2023-03-29T02:01:21.782Z,2.90
2023-03-29T02:03:54.734Z,3.10
2023-03-29T02:06:27.903Z,3.00
2023-03-29T02:08:57.703Z,3.07
2023-03-29T02:11:29.544Z,3.10
2023-03-29T02:13:59.835Z,3.00
2023-03-29T02:16:29.233Z,2.90
2023-03-29T02:18:58.777Z,2.80
2023-03-29T02:21:32.209Z,3.10
2023-03-29T02:24:06.606Z,2.87
2023-03-29T02:26:36.378Z,2.80
2023-03-29T02:29:06.949Z,2.90
2023-03-29T02:31:39.433Z,3.20
2023-03-29T02:34:12.652Z,2.80
2023-03-29T02:36:46.860Z,3.13
2023-03-29T02:39:16.978Z,2.97
2023-03-29T02:41:49.544Z,3.30
2023-03-29T02:44:23.817Z,5.77
2023-03-29T02:46:57.991Z,3.40
2023-03-29T02:49:26.965Z,3.17
2023-03-29T02:52:02.760Z,3.20
2023-03-29T02:54:32.114Z,3.20
2023-03-29T02:57:03.144Z,3.23
2023-03-29T02:59:33.828Z,3.00
2023-03-29T03:02:03.421Z,3.20
2023-03-29T03:04:32.065Z,3.33
2023-03-29T03:07:00.770Z,3.40
2023-03-29T03:09:29.859Z,3.20
2023-03-29T03:11:58.679Z,3.50
2023-03-29T03:14:28.385Z,3.50
2023-03-29T03:17:03.910Z,3.33
2023-03-29T03:19:38.916Z,3.57
2023-03-29T03:22:07.953Z,3.33
2023-03-29T03:24:36.853Z,3.70
2023-03-29T03:27:05.594Z,3.60
2023-03-29T03:29:35.533Z,3.27
2023-03-29T03:32:14.361Z,3.50
2023-03-29T03:34:51.824Z,3.50
2023-03-29T03:37:23.981Z,3.27
2023-03-29T03:39:52.743Z,3.30
2023-03-29T03:42:21.705Z,3.30
2023-03-29T03:44:51.012Z,3.60
2023-03-29T03:47:41.419Z,3.60
2023-03-29T03:50:33.597Z,3.67
2023-03-29T03:53:02.735Z,3.40
2023-03-29T03:55:50.156Z,3.20
2023-03-29T03:58:24.186Z,3.60
2023-03-29T04:00:52.884Z,3.60
2023-03-29T04:03:36.083Z,3.23
2023-03-29T04:06:06.219Z,3.47
2023-03-29T04:08:54.871Z,3.37
2023-03-29T04:11:34.954Z,3.37
2023-03-29T04:14:04.598Z,3.03
2023-03-29T04:16:49.825Z,3.50
2023-03-29T04:19:40.205Z,3.70
2023-03-29T04:22:09.621Z,3.50
2023-03-29T04:24:52.700Z,3.70
2023-03-29T04:27:40.684Z,3.33
2023-03-29T04:30:23.958Z,3.27
2023-03-29T04:33:02.715Z,3.40
2023-03-29T04:35:38.225Z,3.27
2023-03-29T04:38:13.073Z,2.83
2023-03-29T04:40:47.147Z,3.57
2023-03-29T04:43:39.715Z,2.90
2023-03-29T04:46:33.752Z,3.27
2023-03-29T04:49:25.339Z,3.40
2023-03-29T04:52:01.231Z,3.40
2023-03-29T04:54:32.591Z,3.03
2023-03-29T04:57:21.417Z,3.10
2023-03-29T05:00:15.306Z,3.47
2023-03-29T05:03:02.642Z,3.73
2023-03-29T05:05:33.920Z,3.20
2023-03-29T05:08:05.916Z,3.10
2023-03-29T05:10:44.404Z,3.60
2023-03-29T05:13:14.614Z,3.57
2023-03-29T05:15:43.948Z,3.97
2023-03-29T05:18:12.751Z,3.73
2023-03-29T05:20:42.322Z,3.63
2023-03-29T05:23:15.109Z,3.60
2023-03-29T05:26:10.098Z,4.00
2023-03-29T05:28:40.766Z,4.00
2023-03-29T05:31:10.301Z,3.90
2023-03-29T05:33:41.365Z,4.00
2023-03-29T05:36:13.692Z,4.10
2023-03-29T05:38:48.567Z,3.80
2023-03-29T05:41:18.854Z,3.60
2023-03-29T05:43:53.557Z,4.20
2023-03-29T05:46:25.468Z,3.67
2023-03-29T05:48:58.395Z,4.30
2023-03-29T05:51:42.257Z,4.20
2023-03-29T05:54:13.449Z,4.13
2023-03-29T05:56:42.418Z,4.07
2023-03-29T05:59:15.134Z,3.60
2023-03-29T06:01:47.198Z,4.20
2023-03-29T06:04:19.142Z,4.33
2023-03-29T06:07:00.539Z,4.27
2023-03-29T06:09:32.204Z,4.27
2023-03-29T06:12:04.237Z,3.70
2023-03-29T06:14:33.038Z,4.43
2023-03-29T06:17:19.053Z,4.17
2023-03-29T06:19:48.712Z,4.07
2023-03-29T06:22:23.712Z,4.40
2023-03-29T06:24:53.878Z,3.80
2023-03-29T06:27:26.350Z,3.80
2023-03-29T06:29:55.745Z,4.10
2023-03-29T06:32:24.502Z,4.07
2023-03-29T06:34:59.880Z,3.47
2023-03-29T06:37:33.879Z,3.83
2023-03-29T06:40:23.025Z,3.80
2023-03-29T06:42:57.905Z,3.67
2023-03-29T06:45:45.050Z,3.83
2023-03-29T06:50:55.689Z,3.70
2023-03-29T06:53:28.238Z,3.70
2023-03-29T06:56:05.541Z,3.77
2023-03-29T06:58:42.099Z,4.03
2023-03-29T07:01:27.472Z,3.63
2023-03-29T07:04:04.806Z,4.10
2023-03-29T07:06:40.495Z,4.13
2023-03-29T07:09:09.238Z,4.10
2023-03-29T07:12:11.561Z,4.17
2023-03-29T07:14:40.596Z,4.17
2023-03-29T07:17:09.382Z,4.20
2023-03-29T07:19:41.775Z,4.20
2023-03-29T07:22:31.842Z,3.93
2023-03-29T07:25:02.991Z,4.33
2023-03-29T07:27:33.499Z,4.50
2023-03-29T07:30:02.161Z,4.40
2023-03-29T07:32:32.652Z,4.13
2023-03-29T07:36:07.041Z,4.20
2023-03-29T07:38:36.901Z,4.17
2023-03-29T07:41:11.905Z,4.57
2023-03-29T07:43:52.011Z,4.30
2023-03-29T07:46:25.473Z,4.27
2023-03-29T07:48:56.787Z,3.40
2023-03-29T07:51:25.928Z,4.20
2023-03-29T07:54:02.342Z,4.37
2023-03-29T07:56:54.786Z,4.47
2023-03-29T07:59:38.988Z,4.37
2023-03-29T08:02:12.893Z,4.20
2023-03-29T08:04:50.371Z,4.23
2023-03-29T08:07:21.287Z,4.23
2023-03-29T08:10:10.385Z,4.47
2023-03-29T08:12:59.422Z,4.50
2023-03-29T08:15:37.921Z,4.60
2023-03-29T08:18:07.803Z,4.13
2023-03-29T08:20:38.767Z,3.77
2023-03-29T08:23:07.756Z,3.70
2023-03-29T08:25:40.095Z,3.80
2023-03-29T08:28:09.785Z,4.10
2023-03-29T08:30:49.529Z,3.80
2023-03-29T08:33:19.404Z,4.17
2023-03-29T08:35:55.770Z,3.93
2023-03-29T08:38:29.694Z,4.10
2023-03-29T08:40:58.707Z,4.23
2023-03-29T08:43:48.976Z,3.90
2023-03-29T08:46:45.589Z,4.23
2023-03-29T08:49:31.913Z,4.13
2023-03-29T08:52:06.608Z,4.63
2023-03-29T08:54:44.038Z,4.10
2023-03-29T08:57:18.753Z,4.50
2023-03-29T08:59:57.771Z,4.23
2023-03-29T09:02:29.887Z,4.03
2023-03-29T09:05:28.998Z,3.97
2023-03-29T09:08:16.388Z,3.80
2023-03-29T09:10:49.333Z,3.90
2023-03-29T09:13:31.464Z,4.30
2023-03-29T09:16:08.572Z,4.80
2023-03-29T09:18:56.466Z,3.70
2023-03-29T09:21:31.729Z,4.13
2023-03-29T09:24:22.203Z,3.77
2023-03-29T09:27:01.881Z,3.93
2023-03-29T09:29:48.999Z,3.87
2023-03-29T09:32:23.616Z,4.13
2023-03-29T09:35:10.721Z,3.53
2023-03-29T09:37:41.329Z,3.78
2023-03-29T09:40:15.860Z,3.97
2023-03-29T09:43:05.550Z,3.92
2023-03-29T09:45:36.224Z,3.60
2023-03-29T09:48:11.425Z,3.13
2023-03-29T09:50:46.852Z,3.22
2023-03-29T09:53:16.473Z,3.42
2023-03-29T09:55:52.805Z,3.30
2023-03-29T09:58:31.749Z,2.97
2023-03-29T10:01:04.669Z,3.50
2023-03-29T10:03:35.102Z,3.20
2023-03-29T10:06:19.441Z,3.00
2023-03-29T10:08:57.980Z,2.78
2023-03-29T10:11:38.526Z,2.55
2023-03-29T10:14:14.154Z,2.30
2023-03-29T10:16:46.394Z,2.40
2023-03-29T10:19:21.844Z,2.38
2023-03-29T10:21:53.157Z,2.00
2023-03-29T10:24:23.105Z,2.75
2023-03-29T10:26:55.901Z,2.55
2023-03-29T10:29:26.876Z,2.85
2023-03-29T10:31:56.203Z,2.20
2023-03-29T10:34:28.317Z,2.53
2023-03-29T10:37:01.310Z,2.45
2023-03-29T10:39:35.324Z,2.60
2023-03-29T10:42:05.718Z,2.33
2023-03-29T10:44:36.740Z,2.28
2023-03-29T10:47:28.798Z,2.22
2023-03-29T10:50:18.966Z,1.90
2023-03-29T10:53:00.144Z,2.30
2023-03-29T10:56:14.287Z,2.00
2023-03-29T10:59:25.749Z,2.25
2023-03-29T11:02:57.721Z,2.10
2023-03-29T11:05:58.598Z,2.40
2023-03-29T11:08:59.018Z,2.20
2023-03-29T11:12:16.053Z,2.30
2023-03-29T11:15:15.294Z,2.40
2023-03-29T11:18:26.354Z,2.10
2023-03-29T11:22:19.340Z,1.88
2023-03-29T11:25:22.355Z,1.90
2023-03-29T11:28:14.023Z,4.18
2023-03-29T11:31:08.648Z,2.78
2023-03-29T11:34:07.671Z,2.15
2023-03-29T11:36:50.792Z,1.90
2023-03-29T11:39:41.750Z,2.50
2023-03-29T11:42:29.038Z,2.30
2023-03-29T11:45:06.442Z,2.00
2023-03-29T11:47:44.585Z,1.92
2023-03-29T11:50:28.097Z,1.80
2023-03-29T11:53:18.455Z,2.15
2023-03-29T11:55:48.679Z,1.88
2023-03-29T11:58:22.555Z,2.30
2023-03-29T12:00:57.307Z,2.63
2023-03-29T12:03:37.244Z,2.50
2023-03-29T12:06:13.030Z,2.25
2023-03-29T12:08:47.621Z,1.90
2023-03-29T12:11:24.371Z,2.10
2023-03-29T12:13:58.610Z,1.90
2023-03-29T12:16:32.838Z,1.80
2023-03-29T12:19:06.716Z,2.05
2023-03-29T12:21:37.715Z,2.10
2023-03-29T12:24:08.125Z,2.03
2023-03-29T12:27:03.145Z,2.13
2023-03-29T12:30:03.878Z,1.70
2023-03-29T12:32:45.121Z,1.92
2023-03-29T12:36:00.052Z,1.70
2023-03-29T12:38:48.309Z,2.00
2023-03-29T12:41:45.222Z,1.95
2023-03-29T12:44:34.654Z,1.65
2023-03-29T12:47:36.164Z,1.83
2023-03-29T12:50:23.268Z,1.92
2023-03-29T12:52:55.083Z,2.00
2023-03-29T12:55:35.879Z,2.20
2023-03-29T12:58:07.837Z,2.38
2023-03-29T13:00:58.001Z,1.75
2023-03-29T13:03:42.710Z,2.00
2023-03-29T13:06:14.068Z,2.10
2023-03-29T13:08:44.143Z,2.25
2023-03-29T13:11:26.443Z,1.90
2023-03-29T13:13:55.258Z,1.80
2023-03-29T13:16:34.384Z,1.70
2023-03-29T13:19:19.836Z,2.33
2023-03-29T13:21:56.751Z,1.80
2023-03-29T13:25:21.671Z,1.65
2023-03-29T13:27:58.296Z,2.00
2023-03-29T13:30:37.443Z,4.15
2023-03-29T13:33:21.374Z,2.22
2023-03-29T13:36:01.070Z,2.03
2023-03-29T13:38:32.183Z,3.00
2023-03-29T13:41:03.524Z,1.83
2023-03-29T13:43:35.362Z,1.85
2023-03-29T13:46:25.640Z,1.80
2023-03-29T13:49:13.161Z,1.70
2023-03-29T13:51:49.025Z,2.38
2023-03-29T13:54:26.380Z,1.77
2023-03-29T13:57:05.274Z,1.90
2023-03-29T13:59:47.318Z,1.83
2023-03-29T14:02:27.378Z,2.00
2023-03-29T14:04:56.453Z,1.85
2023-03-29T14:07:28.069Z,2.00
2023-03-29T14:09:58.773Z,1.98
2023-03-29T14:12:32.134Z,2.20
2023-03-29T14:15:03.856Z,2.30
2023-03-29T14:17:35.594Z,2.08
2023-03-29T14:20:09.031Z,2.17
2023-03-29T14:22:39.222Z,2.22
2023-03-29T14:25:13.940Z,2.15
2023-03-29T14:27:43.023Z,2.67
2023-03-29T14:30:25.273Z,2.40
2023-03-29T14:32:53.899Z,2.63
2023-03-29T14:35:31.554Z,2.60
2023-03-29T14:38:03.900Z,2.55
2023-03-29T14:40:32.887Z,2.92
2023-03-29T14:43:06.877Z,2.50
2023-03-29T14:46:04.365Z,2.42
2023-03-29T14:48:35.042Z,2.30
2023-03-29T14:51:34.347Z,2.35
2023-03-29T14:54:06.584Z,2.45
2023-03-29T14:56:35.621Z,2.72
2023-03-29T14:59:06.192Z,2.92
2023-03-29T15:01:44.717Z,3.20
2023-03-29T15:04:13.490Z,2.80
2023-03-29T15:06:44.238Z,2.90
2023-03-29T15:09:18.482Z,2.58
2023-03-29T15:13:03.642Z,2.38
2023-03-29T15:15:34.763Z,2.35
2023-03-29T15:18:08.161Z,2.50
2023-03-29T15:20:39.900Z,2.65
2023-03-29T15:23:21.657Z,2.40
2023-03-29T15:25:55.416Z,2.30
2023-03-29T15:28:34.197Z,2.20
2023-03-29T15:31:08.207Z,2.50
2023-03-29T15:33:44.718Z,2.45
2023-03-29T15:36:15.392Z,2.55
2023-03-29T15:38:50.839Z,2.65
2023-03-29T15:41:21.544Z,2.85
2023-03-29T15:43:50.552Z,2.40
2023-03-29T15:46:19.399Z,2.78
2023-03-29T15:48:48.206Z,3.08
2023-03-29T15:51:45.676Z,2.50
2023-03-29T15:54:14.418Z,2.97
2023-03-29T15:56:48.812Z,2.42
2023-03-29T15:59:30.128Z,2.63
2023-03-29T16:02:00.213Z,2.50
2023-03-29T16:04:31.327Z,2.47
2023-03-29T16:07:02.393Z,2.90
2023-03-29T16:09:31.575Z,2.42
2023-03-29T16:12:51.119Z,3.03
2023-03-29T16:15:27.258Z,3.08
2023-03-29T16:17:56.615Z,2.65
2023-03-29T16:20:25.583Z,3.28
2023-03-29T16:22:55.290Z,2.72
2023-03-29T16:25:24.629Z,2.58
2023-03-29T16:27:53.885Z,4.03
2023-03-29T16:30:25.052Z,2.97
2023-03-29T16:32:54.127Z,2.92
2023-03-29T16:35:28.442Z,2.95
2023-03-29T16:37:57.370Z,3.20
2023-03-29T16:40:26.785Z,2.80
2023-03-29T16:42:55.476Z,2.80
2023-03-29T16:45:25.635Z,2.55
2023-03-29T16:49:10.987Z,2.85
2023-03-29T16:51:39.873Z,2.63
2023-03-29T16:54:13.579Z,2.95
2023-03-29T16:56:47.179Z,3.05
2023-03-29T16:59:16.743Z,3.10
2023-03-29T17:01:47.062Z,2.80
2023-03-29T17:04:15.763Z,3.03
2023-03-29T17:06:44.250Z,2.60
2023-03-29T17:09:12.616Z,2.85
2023-03-29T17:11:41.537Z,2.92
2023-03-29T17:14:10.484Z,2.55
2023-03-29T17:16:39.353Z,2.72
2023-03-29T17:19:09.449Z,2.92
2023-03-29T17:21:37.928Z,3.13
2023-03-29T17:24:07.058Z,2.90
2023-03-29T17:26:36.039Z,3.33
2023-03-29T17:29:04.647Z,3.13
2023-03-29T17:31:34.927Z,3.10
2023-03-29T17:34:03.577Z,3.10
2023-03-29T17:36:33.913Z,3.17
2023-03-29T17:39:02.894Z,3.63
2023-03-29T17:41:31.756Z,3.40
2023-03-29T17:44:01.257Z,2.80
2023-03-29T17:46:30.369Z,2.90
2023-03-29T17:48:59.321Z,2.77
2023-03-29T17:51:28.177Z,2.67
2023-03-29T17:53:58.941Z,2.70
2023-03-29T17:56:28.016Z,3.10
2023-03-29T17:58:56.442Z,3.10
2023-03-29T18:01:25.229Z,3.83
2023-03-29T18:03:53.786Z,3.58
2023-03-29T18:06:22.331Z,3.40
2023-03-29T18:08:53.148Z,3.37
2023-03-29T18:11:24.926Z,4.20
2023-03-29T18:13:55.902Z,3.70
2023-03-29T18:16:24.855Z,4.20
2023-03-29T18:23:04.975Z,3.97
2023-03-29T18:25:33.608Z,3.90
2023-03-29T18:28:03.536Z,4.23
2023-03-29T18:30:34.178Z,4.13
2023-03-29T18:33:02.780Z,4.10
2023-03-29T18:35:31.482Z,3.90
2023-03-29T18:38:00.010Z,5.50
2023-03-29T18:40:28.708Z,3.87
2023-03-29T18:42:57.356Z,3.78
2023-03-29T18:45:27.364Z,3.00
2023-03-29T18:47:56.056Z,3.38
2023-03-29T18:50:24.708Z,3.27
2023-03-29T18:52:53.404Z,3.10
2023-03-29T18:55:22.168Z,3.27
2023-03-29T18:57:50.940Z,3.70
2023-03-29T19:00:20.057Z,3.30
2023-03-29T19:02:50.327Z,3.10
2023-03-29T19:05:19.024Z,3.60
2023-03-29T19:07:47.620Z,4.10
2023-03-29T19:10:42.188Z,4.67
2023-03-29T19:13:10.741Z,4.60
2023-03-29T19:15:40.579Z,4.40
2023-03-29T19:18:10.965Z,4.20
2023-03-29T19:20:40.010Z,4.50
2023-03-29T19:23:08.546Z,4.20
2023-03-29T19:25:37.191Z,4.07
2023-03-29T19:28:05.998Z,4.30
2023-03-29T19:30:36.760Z,3.67
2023-03-29T19:33:05.409Z,3.87
2023-03-29T19:35:35.715Z,3.40
2023-03-29T19:38:04.374Z,3.63
2023-03-29T19:40:32.876Z,3.90
2023-03-29T19:43:02.877Z,3.93
2023-03-29T19:46:21.919Z,3.93
2023-03-29T19:48:51.852Z,4.00
2023-03-29T19:51:22.928Z,5.00
2023-03-29T19:53:52.903Z,4.20
2023-03-29T19:56:21.721Z,4.13
2023-03-29T19:58:50.458Z,4.23
2023-03-29T20:01:21.060Z,4.17
2023-03-29T20:03:50.722Z,3.90
2023-03-29T20:06:22.139Z,3.17
2023-03-29T20:08:50.825Z,3.57
2023-03-29T20:11:23.850Z,3.70
2023-03-29T20:13:52.592Z,4.30
2023-03-29T20:16:24.386Z,4.00
2023-03-29T20:18:56.313Z,4.03
2023-03-29T20:21:26.621Z,4.57
2023-03-29T20:23:55.199Z,4.43
2023-03-29T20:26:24.342Z,4.53
2023-03-29T20:28:53.292Z,4.30
2023-03-29T20:31:22.005Z,4.70
2023-03-29T20:33:50.849Z,4.40
2023-03-29T20:36:22.975Z,4.27
2023-03-29T20:38:56.297Z,4.40
2023-03-29T20:41:25.180Z,3.70
2023-03-29T20:44:00.142Z,3.50
2023-03-29T20:46:34.376Z,4.20
2023-03-29T20:49:04.673Z,3.83
2023-03-29T20:51:33.548Z,3.90
2023-03-29T20:54:05.774Z,4.23
2023-03-29T20:56:37.447Z,4.47
2023-03-29T20:59:06.505Z,4.23
2023-03-29T21:01:40.590Z,4.00
2023-03-29T21:04:10.993Z,4.03
2023-03-29T21:06:40.355Z,3.80
2023-03-29T21:09:10.494Z,4.20
2023-03-29T21:11:39.386Z,4.57
2023-03-29T21:14:09.481Z,5.67
2023-03-29T21:16:42.536Z,5.30
2023-03-29T21:19:11.572Z,5.73
2023-03-29T21:21:41.617Z,5.80
2023-03-29T21:24:13.569Z,5.63
2023-03-29T21:26:42.306Z,5.00
2023-03-29T21:29:11.553Z,5.10
2023-03-29T21:31:40.282Z,4.50
2023-03-29T21:34:09.069Z,4.73
2023-03-29T21:36:38.324Z,4.70
2023-03-29T21:39:07.256Z,4.37
2023-03-29T21:41:37.286Z,4.90
2023-03-29T21:44:05.903Z,4.57
2023-03-29T21:46:34.776Z,4.43
2023-03-29T21:49:03.348Z,4.40
2023-03-29T21:51:31.950Z,4.47
2023-03-29T21:54:00.753Z,4.03
2023-03-29T21:56:29.568Z,4.80
2023-03-29T21:58:59.545Z,5.10
2023-03-29T22:01:28.377Z,5.20
2023-03-29T22:03:58.980Z,4.63
2023-03-29T22:06:27.821Z,4.23
2023-03-29T22:08:56.512Z,4.23
2023-03-29T22:11:25.772Z,4.63
2023-03-29T22:13:54.302Z,3.80
2023-03-29T22:16:26.064Z,4.30
2023-03-29T22:18:54.672Z,4.30
2023-03-29T22:21:31.309Z,4.50
2023-03-29T22:24:01.729Z,4.37
2023-03-29T22:26:32.209Z,4.17
2023-03-29T22:29:02.100Z,4.20
2023-03-29T22:31:33.211Z,4.30
2023-03-29T22:34:02.944Z,4.40
2023-03-29T22:36:33.272Z,4.13
2023-03-29T22:39:01.907Z,4.57
2023-03-29T22:41:30.548Z,4.20
2023-03-29T22:44:01.109Z,3.90
2023-03-29T22:46:31.423Z,4.13
2023-03-29T22:49:00.338Z,3.70
2023-03-29T22:51:28.926Z,4.00
2023-03-29T22:53:57.562Z,4.17
2023-03-29T22:56:27.282Z,3.50
2023-03-29T22:58:56.105Z,3.33
2023-03-29T23:01:24.803Z,3.03
2023-03-29T23:03:54.962Z,3.00
2023-03-29T23:06:23.728Z,3.07
2023-03-29T23:08:52.331Z,3.03
2023-03-29T23:11:21.549Z,2.60
2023-03-29T23:13:50.086Z,3.07
2023-03-29T23:16:20.888Z,2.93
2023-03-29T23:18:50.276Z,2.80
2023-03-29T23:21:20.467Z,3.00
2023-03-29T23:23:49.572Z,2.40
2023-03-29T23:26:18.652Z,2.60
2023-03-29T23:28:47.863Z,2.73
2023-03-29T23:31:18.433Z,2.97
2023-03-29T23:33:47.153Z,2.70
2023-03-29T23:36:17.759Z,2.60
2023-03-29T23:38:48.894Z,2.80
2023-03-29T23:41:18.720Z,2.60
2023-03-29T23:43:48.524Z,2.90
2023-03-29T23:46:19.008Z,2.90
2023-03-29T23:48:49.203Z,2.53
2023-03-29T23:51:23.024Z,2.57
2023-03-29T23:53:53.348Z,2.80
2023-03-29T23:56:23.099Z,2.93
2023-03-29T23:58:52.510Z,3.20
